Hellespontdaring — V7QX9 — position and weather

sailwx.info

Track history (hours):
 
Tides and Currents Weather Stations Pressure Air Temp Water Temp Dewpoint Dewpoint Depression Visibility Wind Speed Wind Dir Waves Ship Positions

Hellespontdaring

Last reported at 2017-Nov-17 10:01 UTC. Time now 2017-Nov-21 04:28 UTC.
Position S 04°55' E 011°36'.

Length 73 m; draft 5.6 m.

Type: Other ship. MMSI: 538090374.

Date/timePositionNaut miles runAvg speedWind from/ knotsBaromVisibWave heightAir tempDewpointWater temp
2017-Nov-17 10:01S 04°55' E 011°36'0 7.3
2017-Nov-17 09:59S 04°55' E 011°35'3 7.2
2017-Nov-17 09:30S 04°57' E 011°33'4 7.1
2017-Nov-17 09:00S 04°60' E 011°30'4 7.1
2017-Nov-17 08:30S 05°02' E 011°27'4 7.3
2017-Nov-17 08:00S 05°05' E 011°25'4 7.4
2017-Nov-17 07:30S 05°07' E 011°22'4 7.3
2017-Nov-17 07:00S 05°10' E 011°20'3 6.2
2017-Nov-17 06:28S 05°13' E 011°18'0 0.4
2017-Nov-17 06:00S 05°13' E 011°18'0 0.0
2017-Nov-17 05:30S 05°13' E 011°18'0 0.0
2017-Nov-17 05:00S 05°13' E 011°18'0 0.0
2017-Nov-17 04:30S 05°13' E 011°18'0 0.0
2017-Nov-17 03:58S 05°13' E 011°18'0 0.0
2017-Nov-17 03:30S 05°13' E 011°18'0 0.0
2017-Nov-17 03:00S 05°13' E 011°18'0 0.0
2017-Nov-17 02:30S 05°13' E 011°18'0 0.0
2017-Nov-17 02:00S 05°13' E 011°18'0 0.0
2017-Nov-17 01:30S 05°13' E 011°18'0 0.0
2017-Nov-17 01:00S 05°13' E 011°18'0 0.0
2017-Nov-17 00:29S 05°13' E 011°18'0 0.0
2017-Nov-17 00:00S 05°13' E 011°18'0 0.0
2017-Nov-16 23:30S 05°13' E 011°18'0 0.0
2017-Nov-16 23:00S 05°13' E 011°18'0 0.1
2017-Nov-16 22:30S 05°13' E 011°18'0 0.7
2017-Nov-16 22:00S 05°13' E 011°18'2 3.4
2017-Nov-16 21:30S 05°14' E 011°18'1 1.1
2017-Nov-16 21:00S 05°14' E 011°18'1 1.4
2017-Nov-16 20:30S 05°15' E 011°17'1 1.2
2017-Nov-16 20:00S 05°14' E 011°17'1 1.0
2017-Nov-16 19:30S 05°14' E 011°17'1 1.1
2017-Nov-16 19:00S 05°13' E 011°17'0 1.0
2017-Nov-16 18:30S 05°13' E 011°18'0 0.6
2017-Nov-16 18:00S 05°13' E 011°18'0 0.7
2017-Nov-16 17:30S 05°13' E 011°17'0 0.8
2017-Nov-16 17:00S 05°13' E 011°17'0 0.9
2017-Nov-16 16:30S 05°14' E 011°17'0 0.5
2017-Nov-16 16:00S 05°13' E 011°17'0 0.8
2017-Nov-16 15:30S 05°13' E 011°18'1 1.9
2017-Nov-16 15:00S 05°14' E 011°18'3 5.3
2017-Nov-16 14:30S 05°16' E 011°20'4 7.4
2017-Nov-16 14:00S 05°18' E 011°23'1 1.1
2017-Nov-16 13:30S 05°17' E 011°23'0 0.0
2017-Nov-16 13:00S 05°17' E 011°23'0 0.0
2017-Nov-16 12:30S 05°17' E 011°23'0 0.1
2017-Nov-16 12:00S 05°17' E 011°23'0 0.4
2017-Nov-16 11:30S 05°17' E 011°23'1 1.3
2017-Nov-16 11:00S 05°18' E 011°23'0 0.6
2017-Nov-16 10:30S 05°18' E 011°23'0 0.4
2017-Nov-16 10:00S 05°18' E 011°23'0 0.5
2017-Nov-16 09:30S 05°18' E 011°23'0 0.4
2017-Nov-16 08:58S 05°18' E 011°23'1 2.2
2017-Nov-16 08:30S 05°17' E 011°22'3 5.9
2017-Nov-16 08:00S 05°15' E 011°19'3 5.3
2017-Nov-16 07:30S 05°14' E 011°17'0 0.6
2017-Nov-16 07:00S 05°13' E 011°17'0 0.6
2017-Nov-16 06:30S 05°13' E 011°17'0 0.1
2017-Nov-16 06:00S 05°13' E 011°17'0 0.4
2017-Nov-16 05:30S 05°13' E 011°17'0 0.4
2017-Nov-16 05:00S 05°13' E 011°17'0 0.4
2017-Nov-16 04:30S 05°13' E 011°17'0 0.4
2017-Nov-16 04:00S 05°13' E 011°17'0 0.2
2017-Nov-16 03:30S 05°12' E 011°17'0 1.0
2017-Nov-16 03:00S 05°13' E 011°17'0 0.7
2017-Nov-16 02:30S 05°13' E 011°17'0 0.2
2017-Nov-16 02:00S 05°13' E 011°17'0 0.2
2017-Nov-16 01:30S 05°13' E 011°17'0 0.2
2017-Nov-16 01:00S 05°13' E 011°17'0 0.1
2017-Nov-16 00:30S 05°13' E 011°17'0 0.5
2017-Nov-16 00:00S 05°12' E 011°17'1 1.6
2017-Nov-15 23:30S 05°13' E 011°17'1 1.1
2017-Nov-15 23:00S 05°14' E 011°17'0 0.5
2017-Nov-15 22:30S 05°13' E 011°17'0 0.7
2017-Nov-15 22:00S 05°13' E 011°17'0 0.9
2017-Nov-15 21:30S 05°13' E 011°17'0 0.9
2017-Nov-15 21:00S 05°12' E 011°17'0 1.0
2017-Nov-15 20:30S 05°13' E 011°17'1 1.7
2017-Nov-15 20:00S 05°13' E 011°17'2 4.5
2017-Nov-15 19:30S 05°15' E 011°18'4 7.3
2017-Nov-15 19:00S 05°17' E 011°21'2 4.1
2017-Nov-15 18:30S 05°17' E 011°23'0 0.0
2017-Nov-15 18:00S 05°17' E 011°23'0 0.0
2017-Nov-15 17:30S 05°17' E 011°23'0 0.0
2017-Nov-15 17:00S 05°17' E 011°23'0 0.4
2017-Nov-15 16:30S 05°17' E 011°23'1 0.7
2017-Nov-15 15:25S 05°18' E 011°23'0 0.6
2017-Nov-15 15:00S 05°18' E 011°23'1 1.2
2017-Nov-15 14:30S 05°17' E 011°23'0 0.0
2017-Nov-15 13:57S 05°17' E 011°23'0 0.1
2017-Nov-15 13:30S 05°17' E 011°23'0 0.5
2017-Nov-15 13:00S 05°17' E 011°23'0 0.4
2017-Nov-15 12:30S 05°18' E 011°23'1 1.6
2017-Nov-15 12:00S 05°18' E 011°23'0 0.6
2017-Nov-15 11:30S 05°18' E 011°22'0 0.6
2017-Nov-15 11:00S 05°18' E 011°22'0 0.6
2017-Nov-15 10:30S 05°18' E 011°22'0 0.4
2017-Nov-15 10:00S 05°18' E 011°23'1 1.4
2017-Nov-15 09:30S 05°18' E 011°22'0 0.4
2017-Nov-15 09:00S 05°18' E 011°22'0 1.0
2017-Nov-15 08:30S 05°18' E 011°22'0 0.5
2017-Nov-15 08:00S 05°18' E 011°22'0 0.6
2017-Nov-15 07:29S 05°18' E 011°22'0 0.6
2017-Nov-15 07:00S 05°18' E 011°22'0 0.9
2017-Nov-15 06:30S 05°17' E 011°22'0 0.9
2017-Nov-15 06:00S 05°18' E 011°22'1 1.2
2017-Nov-15 05:30S 05°18' E 011°22'0 0.9
2017-Nov-15 05:00S 05°18' E 011°23'1 1.0
2017-Nov-15 04:30S 05°18' E 011°23'0 0.4
2017-Nov-15 04:00S 05°18' E 011°23'1 1.1
2017-Nov-15 03:30S 05°18' E 011°22'1 1.3
2017-Nov-15 03:00S 05°19' E 011°23'1 1.1
2017-Nov-15 02:30S 05°18' E 011°23'0 0.8
2017-Nov-15 02:00S 05°18' E 011°23'0 0.4
2017-Nov-15 01:30S 05°18' E 011°23'0 0.9
2017-Nov-15 01:00S 05°18' E 011°23'0 0.4
2017-Nov-15 00:30S 05°18' E 011°23'1 1.0
2017-Nov-15 00:00S 05°18' E 011°23'1 1.2
2017-Nov-14 23:30S 05°17' E 011°23'0 0.1
2017-Nov-14 23:00S 05°17' E 011°23'0 0.0
2017-Nov-14 22:30S 05°17' E 011°23'0 0.0
2017-Nov-14 22:00S 05°17' E 011°23'0 0.1
2017-Nov-14 21:30S 05°17' E 011°23'0 0.1
2017-Nov-14 21:00S 05°17' E 011°23'0 0.5
2017-Nov-14 20:30S 05°17' E 011°23'0 0.3
2017-Nov-14 20:00S 05°17' E 011°23'0 0.9
2017-Nov-14 19:30S 05°17' E 011°23'0 0.4
2017-Nov-14 19:00S 05°17' E 011°23'0 0.0
2017-Nov-14 18:30S 05°17' E 011°23'0 0.0
2017-Nov-14 18:00S 05°17' E 011°23'0 0.0
2017-Nov-14 17:30S 05°17' E 011°23'0 0.0
2017-Nov-14 17:00S 05°17' E 011°23'0 0.0
2017-Nov-14 16:30S 05°17' E 011°23'0 0.0
2017-Nov-14 16:00S 05°17' E 011°23'0 0.5
2017-Nov-14 15:30S 05°17' E 011°23'0 0.3
2017-Nov-14 15:00S 05°18' E 011°23'1 1.7
2017-Nov-14 14:30S 05°18' E 011°23'0 0.4
2017-Nov-14 14:00S 05°18' E 011°23'0 0.4
2017-Nov-14 13:30S 05°18' E 011°23'0 0.3
2017-Nov-14 13:00S 05°18' E 011°23'1 1.1
2017-Nov-14 12:30S 05°18' E 011°23'0 0.6
2017-Nov-14 12:00S 05°18' E 011°23'0 0.5
2017-Nov-14 11:30S 05°18' E 011°23'0 0.4
2017-Nov-14 11:00S 05°18' E 011°23'0 0.8
2017-Nov-14 10:30S 05°17' E 011°23'0 0.0
2017-Nov-14 10:00S 05°17' E 011°23'0 0.0
2017-Nov-14 09:30S 05°17' E 011°23'0 0.0
2017-Nov-14 08:56S 05°17' E 011°23'0 0.1
2017-Nov-14 08:30S 05°17' E 011°23'0 0.2
2017-Nov-14 08:00S 05°17' E 011°23'0 0.0
2017-Nov-14 07:30S 05°17' E 011°23'0 0.0
2017-Nov-14 07:00S 05°17' E 011°23'0 0.0
2017-Nov-14 06:30S 05°17' E 011°23'0 0.2
2017-Nov-14 06:00S 05°17' E 011°23'0 0.2
2017-Nov-14 05:28S 05°17' E 011°23'1 2.4
2017-Nov-14 05:00S 05°17' E 011°22'2 3.8
2017-Nov-14 04:30S 05°16' E 011°21'3 5.4
2017-Nov-14 04:00S 05°14' E 011°19'1 2.8
2017-Nov-14 03:30S 05°13' E 011°18'0 0.3
2017-Nov-14 03:00S 05°13' E 011°18'0 0.6
2017-Nov-14 02:30S 05°13' E 011°18'0 0.2
2017-Nov-14 02:00S 05°12' E 011°18'2 4.0
2017-Nov-14 01:30S 05°11' E 011°19'3 6.7
2017-Nov-14 01:00S 05°08' E 011°22'3 6.9
2017-Nov-14 00:30S 05°06' E 011°24'3 6.5
2017-Nov-14 00:00S 05°04' E 011°27'3 6.7
2017-Nov-13 23:30S 05°02' E 011°29'4 6.6
2017-Nov-13 22:56S 04°59' E 011°32'11 0.4
2017-Nov-12 18:36S 04°51' E 011°39'1 6.8
2017-Nov-12 18:30S 04°51' E 011°39'3 6.7
2017-Nov-12 18:00S 04°54' E 011°36'4 7.0
2017-Nov-12 17:29S 04°57' E 011°34'4 7.2
2017-Nov-12 16:59S 04°60' E 011°32'3 7.3
2017-Nov-12 16:30S 05°02' E 011°30'4 7.3
2017-Nov-12 16:00S 05°06' E 011°28'4 7.3
2017-Nov-12 15:30S 05°09' E 011°27'4 7.2
2017-Nov-12 15:00S 05°12' E 011°25'4 7.4
2017-Nov-12 14:30S 05°16' E 011°24'2 3.2
2017-Nov-12 14:00S 05°17' E 011°23'0 0.0
2017-Nov-12 13:30S 05°17' E 011°23'0 0.0
2017-Nov-12 13:00S 05°17' E 011°23'0 0.0
2017-Nov-12 12:30S 05°17' E 011°23'0 0.0
2017-Nov-12 12:00S 05°17' E 011°23'0 0.0
2017-Nov-12 11:30S 05°17' E 011°23'0 0.1
2017-Nov-12 11:00S 05°17' E 011°23'0 0.1
2017-Nov-12 10:30S 05°17' E 011°23'0 0.0
2017-Nov-12 10:00S 05°17' E 011°23'0 0.1
2017-Nov-12 09:30S 05°17' E 011°23'0 0.7
2017-Nov-12 09:00S 05°17' E 011°24'0 0.5
2017-Nov-12 08:30S 05°17' E 011°23'0 0.0
2017-Nov-12 08:00S 05°17' E 011°23'0 0.0
2017-Nov-12 07:30S 05°17' E 011°23'0 0.0
2017-Nov-12 06:56S 05°17' E 011°23'0 0.0
2017-Nov-12 06:30S 05°17' E 011°23'0 0.0
2017-Nov-12 06:00S 05°17' E 011°23'0 0.3
2017-Nov-12 05:30S 05°17' E 011°23'0 0.8
2017-Nov-12 05:00S 05°17' E 011°24'0 0.5
2017-Nov-12 04:30S 05°17' E 011°23'0 0.0
2017-Nov-12 03:59S 05°17' E 011°23'0 0.0
2017-Nov-12 03:30S 05°17' E 011°23'0 0.0
2017-Nov-12 03:00S 05°17' E 011°23'0 0.0
2017-Nov-12 02:30S 05°17' E 011°23'0 0.0
2017-Nov-12 02:00S 05°17' E 011°23'0 0.0
2017-Nov-12 01:30S 05°17' E 011°23'0 0.0
2017-Nov-12 01:00S 05°17' E 011°23'0 0.0
2017-Nov-12 00:30S 05°17' E 011°23'0 0.0
2017-Nov-12 00:00S 05°17' E 011°23'0 0.0
2017-Nov-11 23:29S 05°17' E 011°23'0 0.0
2017-Nov-11 23:00S 05°17' E 011°23'0 0.0
2017-Nov-11 22:30S 05°17' E 011°23'0 0.0
2017-Nov-11 22:00S 05°17' E 011°23'0 0.0
2017-Nov-11 21:30S 05°17' E 011°23'0 0.0
2017-Nov-11 21:00S 05°17' E 011°23'0 0.3
2017-Nov-11 20:30S 05°17' E 011°23'0 0.0
2017-Nov-11 20:00S 05°17' E 011°23'0 0.0
2017-Nov-11 19:30S 05°17' E 011°23'0 0.0
2017-Nov-11 19:00S 05°17' E 011°23'1 2.6
2017-Nov-11 18:30S 05°17' E 011°22'3 5.8
2017-Nov-11 18:00S 05°15' E 011°20'3 5.7
2017-Nov-11 17:30S 05°13' E 011°18'0 0.5
2017-Nov-11 17:00S 05°13' E 011°18'0 0.0
2017-Nov-11 16:30S 05°13' E 011°18'0 0.0
2017-Nov-11 16:00S 05°13' E 011°18'0 0.0
2017-Nov-11 15:30S 05°13' E 011°18'0 0.0
2017-Nov-11 15:00S 05°13' E 011°18'0 0.0
2017-Nov-11 14:30S 05°13' E 011°18'0 0.0
2017-Nov-11 14:00S 05°13' E 011°18'0 0.0
2017-Nov-11 13:30S 05°13' E 011°18'0 0.0
2017-Nov-11 13:00S 05°13' E 011°18'0 0.0
2017-Nov-11 12:30S 05°13' E 011°18'0 0.0
2017-Nov-11 12:00S 05°13' E 011°18'0 0.0
2017-Nov-11 11:30S 05°13' E 011°18'0 0.0
2017-Nov-11 11:00S 05°13' E 011°18'0 0.0
2017-Nov-11 10:30S 05°13' E 011°18'0 0.0
2017-Nov-11 10:00S 05°13' E 011°18'0 0.3
2017-Nov-11 09:29S 05°13' E 011°18'0 0.3
2017-Nov-11 09:00S 05°13' E 011°18'0 0.0
2017-Nov-11 08:30S 05°13' E 011°18'0 0.0
2017-Nov-11 08:00S 05°13' E 011°18'0 0.0
2017-Nov-11 07:30S 05°13' E 011°18'0 0.0
2017-Nov-11 07:00S 05°13' E 011°18'0 0.2
2017-Nov-11 06:30S 05°13' E 011°18'0 0.6
2017-Nov-11 06:00S 05°13' E 011°18'0 0.1
2017-Nov-11 05:30S 05°13' E 011°18'1 1.5
2017-Nov-11 05:00S 05°14' E 011°18'2 3.8
2017-Nov-11 04:30S 05°15' E 011°19'3 6.1
2017-Nov-11 04:00S 05°16' E 011°22'2 3.8
2017-Nov-11 03:30S 05°16' E 011°24'0 0.7
2017-Nov-11 03:00S 05°16' E 011°24'1 1.1
2017-Nov-11 02:30S 05°16' E 011°24'0 0.6
2017-Nov-11 02:00S 05°16' E 011°23'3 4.5
2017-Nov-11 01:25S 05°14' E 011°24'3 7.2
2017-Nov-11 01:00S 05°11' E 011°25'4 7.4
2017-Nov-11 00:30S 05°08' E 011°27'4 7.5
2017-Nov-11 00:00S 05°04' E 011°29'4 7.5
2017-Nov-10 23:30S 05°01' E 011°31'5 7.6
2017-Nov-10 22:47S 04°57' E 011°34'9 0.3
2017-Nov-09 18:29S 04°51' E 011°40'4 7.6
2017-Nov-09 18:00S 04°53' E 011°37'4 7.5
2017-Nov-09 17:30S 04°56' E 011°34'4 7.4
2017-Nov-09 17:00S 04°58' E 011°32'4 7.7
2017-Nov-09 16:30S 05°02' E 011°30'4 7.3
2017-Nov-09 16:00S 05°05' E 011°28'4 7.7
2017-Nov-09 15:30S 05°08' E 011°26'4 7.6
2017-Nov-09 15:00S 05°12' E 011°25'4 7.6
2017-Nov-09 14:30S 05°16' E 011°24'2 4.6
2017-Nov-09 14:00S 05°17' E 011°23'0 0.8
2017-Nov-09 13:30S 05°17' E 011°23'0 0.0
2017-Nov-09 13:01S 05°17' E 011°23'0 0.1
2017-Nov-09 12:30S 05°17' E 011°23'0 0.1
2017-Nov-09 12:00S 05°17' E 011°23'0 0.0
2017-Nov-09 11:30S 05°17' E 011°23'0 0.0
2017-Nov-09 11:00S 05°17' E 011°23'0 0.0
2017-Nov-09 10:30S 05°17' E 011°23'0 0.0
2017-Nov-09 10:00S 05°17' E 011°23'0 0.0
2017-Nov-09 09:30S 05°17' E 011°23'0 0.0
2017-Nov-09 09:00S 05°17' E 011°23'0 0.0
2017-Nov-09 08:30S 05°17' E 011°23'0 0.0
2017-Nov-09 08:00S 05°17' E 011°23'0 0.1
2017-Nov-09 07:30S 05°17' E 011°23'0 0.0
2017-Nov-09 07:00S 05°17' E 011°23'0 0.1
2017-Nov-09 06:30S 05°17' E 011°23'0 0.2
2017-Nov-09 06:00S 05°17' E 011°23'0 0.1
2017-Nov-09 05:30S 05°17' E 011°23'0 0.1
2017-Nov-09 05:00S 05°17' E 011°23'0 0.0
2017-Nov-09 04:30S 05°17' E 011°23'0 0.2
2017-Nov-09 04:00S 05°17' E 011°23'0 0.0
2017-Nov-09 03:30S 05°17' E 011°23'0 0.0
2017-Nov-09 03:00S 05°17' E 011°23'0 0.0
2017-Nov-09 02:30S 05°17' E 011°23'0 0.0
2017-Nov-09 02:00S 05°17' E 011°23'0 0.0
2017-Nov-09 01:30S 05°17' E 011°23'0 0.0
2017-Nov-09 01:00S 05°17' E 011°23'0 0.0
2017-Nov-09 00:30S 05°17' E 011°23'0 0.0
2017-Nov-09 00:00S 05°17' E 011°23'0 0.0
2017-Nov-08 23:30S 05°17' E 011°23'0 0.0
2017-Nov-08 23:00S 05°17' E 011°23'0 0.0
2017-Nov-08 22:30S 05°17' E 011°23'0 0.0
2017-Nov-08 22:00S 05°17' E 011°23'0 0.0
2017-Nov-08 21:30S 05°17' E 011°23'0 0.0
2017-Nov-08 21:00S 05°17' E 011°23'0 0.0
2017-Nov-08 20:30S 05°17' E 011°23'0 0.0
2017-Nov-08 20:00S 05°17' E 011°23'0 0.0
2017-Nov-08 19:30S 05°17' E 011°23'0 0.1
2017-Nov-08 19:00S 05°17' E 011°23'0 0.8
2017-Nov-08 18:30S 05°17' E 011°24'2 3.6
2017-Nov-08 18:00S 05°15' E 011°23'0 0.6
2017-Nov-08 17:30S 05°16' E 011°23'1 1.5
2017-Nov-08 17:00S 05°16' E 011°24'1 1.7
2017-Nov-08 16:30S 05°17' E 011°24'0 0.5
2017-Nov-08 16:00S 05°17' E 011°24'0 0.5
2017-Nov-08 15:30S 05°17' E 011°24'0 0.5
2017-Nov-08 15:00S 05°17' E 011°24'0 0.7
2017-Nov-08 14:30S 05°17' E 011°23'0 0.7
2017-Nov-08 14:00S 05°17' E 011°23'0 0.0
2017-Nov-08 13:30S 05°17' E 011°23'0 0.1
2017-Nov-08 13:00S 05°17' E 011°23'0 0.0
2017-Nov-08 12:30S 05°17' E 011°23'0 0.0
2017-Nov-08 12:00S 05°17' E 011°23'0 0.0
2017-Nov-08 11:30S 05°17' E 011°23'0 0.0
2017-Nov-08 11:00S 05°17' E 011°23'0 0.0
2017-Nov-08 10:30S 05°17' E 011°23'0 0.0
2017-Nov-08 10:00S 05°17' E 011°23'0 0.2
2017-Nov-08 09:30S 05°17' E 011°23'0 0.0
2017-Nov-08 09:00S 05°17' E 011°23'0 0.0
2017-Nov-08 08:30S 05°17' E 011°23'0 0.0
2017-Nov-08 08:00S 05°17' E 011°23'0 0.0
2017-Nov-08 07:30S 05°17' E 011°23'0 0.0
2017-Nov-08 07:00S 05°17' E 011°23'0 0.1
2017-Nov-08 06:30S 05°17' E 011°23'0 0.4
2017-Nov-08 06:00S 05°17' E 011°23'1 1.3
2017-Nov-08 05:30S 05°17' E 011°24'0 0.5
2017-Nov-08 05:00S 05°17' E 011°24'0 0.1
2017-Nov-08 04:30S 05°17' E 011°24'0 0.3
2017-Nov-08 04:00S 05°17' E 011°24'0 0.2
2017-Nov-08 03:30S 05°17' E 011°24'0 0.3
2017-Nov-08 03:00S 05°16' E 011°24'1 1.9
2017-Nov-08 02:30S 05°16' E 011°24'3 6.6
2017-Nov-08 02:00S 05°13' E 011°25'3 6.6
2017-Nov-08 01:30S 05°10' E 011°27'3 6.5
2017-Nov-08 01:00S 05°07' E 011°28'3 6.7
2017-Nov-08 00:30S 05°03' E 011°29'3 6.6
2017-Nov-08 00:00S 05°00' E 011°30'3 6.6
2017-Nov-07 23:30S 04°58' E 011°32'3 6.8
2017-Nov-07 23:00S 04°55' E 011°35'  
Track history (hours):
 
Tides and Currents Weather Stations Pressure Air Temp Water Temp Dewpoint Dewpoint Depression Visibility Wind Speed Wind Dir Waves Ship Positions

Hellespontdaring

Last reported at 2017-Nov-17 10:01 UTC. Time now 2017-Nov-21 04:28 UTC.
Position S 04°55' E 011°36'.

Length 73 m; draft 5.6 m.

Type: Other ship. MMSI: 538090374.

Date/timePositionNaut miles runAvg speedWind from/ knotsBaromVisibWave heightAir tempDewpointWater temp
2017-Nov-17 10:01S 04°55' E 011°36'0 7.3
2017-Nov-17 09:59S 04°55' E 011°35'3 7.2
2017-Nov-17 09:30S 04°57' E 011°33'4 7.1
2017-Nov-17 09:00S 04°60' E 011°30'4 7.1
2017-Nov-17 08:30S 05°02' E 011°27'4 7.3
2017-Nov-17 08:00S 05°05' E 011°25'4 7.4
2017-Nov-17 07:30S 05°07' E 011°22'4 7.3
2017-Nov-17 07:00S 05°10' E 011°20'3 6.2
2017-Nov-17 06:28S 05°13' E 011°18'0 0.4
2017-Nov-17 06:00S 05°13' E 011°18'0 0.0
2017-Nov-17 05:30S 05°13' E 011°18'0 0.0
2017-Nov-17 05:00S 05°13' E 011°18'0 0.0
2017-Nov-17 04:30S 05°13' E 011°18'0 0.0
2017-Nov-17 03:58S 05°13' E 011°18'0 0.0
2017-Nov-17 03:30S 05°13' E 011°18'0 0.0
2017-Nov-17 03:00S 05°13' E 011°18'0 0.0
2017-Nov-17 02:30S 05°13' E 011°18'0 0.0
2017-Nov-17 02:00S 05°13' E 011°18'0 0.0
2017-Nov-17 01:30S 05°13' E 011°18'0 0.0
2017-Nov-17 01:00S 05°13' E 011°18'0 0.0
2017-Nov-17 00:29S 05°13' E 011°18'0 0.0
2017-Nov-17 00:00S 05°13' E 011°18'0 0.0
2017-Nov-16 23:30S 05°13' E 011°18'0 0.0
2017-Nov-16 23:00S 05°13' E 011°18'0 0.1
2017-Nov-16 22:30S 05°13' E 011°18'0 0.7
2017-Nov-16 22:00S 05°13' E 011°18'2 3.4
2017-Nov-16 21:30S 05°14' E 011°18'1 1.1
2017-Nov-16 21:00S 05°14' E 011°18'1 1.4
2017-Nov-16 20:30S 05°15' E 011°17'1 1.2
2017-Nov-16 20:00S 05°14' E 011°17'1 1.0
2017-Nov-16 19:30S 05°14' E 011°17'1 1.1
2017-Nov-16 19:00S 05°13' E 011°17'0 1.0
2017-Nov-16 18:30S 05°13' E 011°18'0 0.6
2017-Nov-16 18:00S 05°13' E 011°18'0 0.7
2017-Nov-16 17:30S 05°13' E 011°17'0 0.8
2017-Nov-16 17:00S 05°13' E 011°17'0 0.9
2017-Nov-16 16:30S 05°14' E 011°17'0 0.5
2017-Nov-16 16:00S 05°13' E 011°17'0 0.8
2017-Nov-16 15:30S 05°13' E 011°18'1 1.9
2017-Nov-16 15:00S 05°14' E 011°18'3 5.3
2017-Nov-16 14:30S 05°16' E 011°20'4 7.4
2017-Nov-16 14:00S 05°18' E 011°23'1 1.1
2017-Nov-16 13:30S 05°17' E 011°23'0 0.0
2017-Nov-16 13:00S 05°17' E 011°23'0 0.0
2017-Nov-16 12:30S 05°17' E 011°23'0 0.1
2017-Nov-16 12:00S 05°17' E 011°23'0 0.4
2017-Nov-16 11:30S 05°17' E 011°23'1 1.3
2017-Nov-16 11:00S 05°18' E 011°23'0 0.6
2017-Nov-16 10:30S 05°18' E 011°23'0 0.4
2017-Nov-16 10:00S 05°18' E 011°23'0 0.5
2017-Nov-16 09:30S 05°18' E 011°23'0 0.4
2017-Nov-16 08:58S 05°18' E 011°23'1 2.2
2017-Nov-16 08:30S 05°17' E 011°22'3 5.9
2017-Nov-16 08:00S 05°15' E 011°19'3 5.3
2017-Nov-16 07:30S 05°14' E 011°17'0 0.6
2017-Nov-16 07:00S 05°13' E 011°17'0 0.6
2017-Nov-16 06:30S 05°13' E 011°17'0 0.1
2017-Nov-16 06:00S 05°13' E 011°17'0 0.4
2017-Nov-16 05:30S 05°13' E 011°17'0 0.4
2017-Nov-16 05:00S 05°13' E 011°17'0 0.4
2017-Nov-16 04:30S 05°13' E 011°17'0 0.4
2017-Nov-16 04:00S 05°13' E 011°17'0 0.2
2017-Nov-16 03:30S 05°12' E 011°17'0 1.0
2017-Nov-16 03:00S 05°13' E 011°17'0 0.7
2017-Nov-16 02:30S 05°13' E 011°17'0 0.2
2017-Nov-16 02:00S 05°13' E 011°17'0 0.2
2017-Nov-16 01:30S 05°13' E 011°17'0 0.2
2017-Nov-16 01:00S 05°13' E 011°17'0 0.1
2017-Nov-16 00:30S 05°13' E 011°17'0 0.5
2017-Nov-16 00:00S 05°12' E 011°17'1 1.6
2017-Nov-15 23:30S 05°13' E 011°17'1 1.1
2017-Nov-15 23:00S 05°14' E 011°17'0 0.5
2017-Nov-15 22:30S 05°13' E 011°17'0 0.7
2017-Nov-15 22:00S 05°13' E 011°17'0 0.9
2017-Nov-15 21:30S 05°13' E 011°17'0 0.9
2017-Nov-15 21:00S 05°12' E 011°17'0 1.0
2017-Nov-15 20:30S 05°13' E 011°17'1 1.7
2017-Nov-15 20:00S 05°13' E 011°17'2 4.5
2017-Nov-15 19:30S 05°15' E 011°18'4 7.3
2017-Nov-15 19:00S 05°17' E 011°21'2 4.1
2017-Nov-15 18:30S 05°17' E 011°23'0 0.0
2017-Nov-15 18:00S 05°17' E 011°23'0 0.0
2017-Nov-15 17:30S 05°17' E 011°23'0 0.0
2017-Nov-15 17:00S 05°17' E 011°23'0 0.4
2017-Nov-15 16:30S 05°17' E 011°23'1 0.7
2017-Nov-15 15:25S 05°18' E 011°23'0 0.6
2017-Nov-15 15:00S 05°18' E 011°23'1 1.2
2017-Nov-15 14:30S 05°17' E 011°23'0 0.0
2017-Nov-15 13:57S 05°17' E 011°23'0 0.1
2017-Nov-15 13:30S 05°17' E 011°23'0 0.5
2017-Nov-15 13:00S 05°17' E 011°23'0 0.4
2017-Nov-15 12:30S 05°18' E 011°23'1 1.6
2017-Nov-15 12:00S 05°18' E 011°23'0 0.6
2017-Nov-15 11:30S 05°18' E 011°22'0 0.6
2017-Nov-15 11:00S 05°18' E 011°22'0 0.6
2017-Nov-15 10:30S 05°18' E 011°22'0 0.4
2017-Nov-15 10:00S 05°18' E 011°23'1 1.4
2017-Nov-15 09:30S 05°18' E 011°22'0 0.4
2017-Nov-15 09:00S 05°18' E 011°22'0 1.0
2017-Nov-15 08:30S 05°18' E 011°22'0 0.5
2017-Nov-15 08:00S 05°18' E 011°22'0 0.6
2017-Nov-15 07:29S 05°18' E 011°22'0 0.6
2017-Nov-15 07:00S 05°18' E 011°22'0 0.9
2017-Nov-15 06:30S 05°17' E 011°22'0 0.9
2017-Nov-15 06:00S 05°18' E 011°22'1 1.2
2017-Nov-15 05:30S 05°18' E 011°22'0 0.9
2017-Nov-15 05:00S 05°18' E 011°23'1 1.0
2017-Nov-15 04:30S 05°18' E 011°23'0 0.4
2017-Nov-15 04:00S 05°18' E 011°23'1 1.1
2017-Nov-15 03:30S 05°18' E 011°22'1 1.3
2017-Nov-15 03:00S 05°19' E 011°23'1 1.1
2017-Nov-15 02:30S 05°18' E 011°23'0 0.8
2017-Nov-15 02:00S 05°18' E 011°23'0 0.4
2017-Nov-15 01:30S 05°18' E 011°23'0 0.9
2017-Nov-15 01:00S 05°18' E 011°23'0 0.4
2017-Nov-15 00:30S 05°18' E 011°23'1 1.0
2017-Nov-15 00:00S 05°18' E 011°23'1 1.2
2017-Nov-14 23:30S 05°17' E 011°23'0 0.1
2017-Nov-14 23:00S 05°17' E 011°23'0 0.0
2017-Nov-14 22:30S 05°17' E 011°23'0 0.0
2017-Nov-14 22:00S 05°17' E 011°23'0 0.1
2017-Nov-14 21:30S 05°17' E 011°23'0 0.1
2017-Nov-14 21:00S 05°17' E 011°23'0 0.5
2017-Nov-14 20:30S 05°17' E 011°23'0 0.3
2017-Nov-14 20:00S 05°17' E 011°23'0 0.9
2017-Nov-14 19:30S 05°17' E 011°23'0 0.4
2017-Nov-14 19:00S 05°17' E 011°23'0 0.0
2017-Nov-14 18:30S 05°17' E 011°23'0 0.0
2017-Nov-14 18:00S 05°17' E 011°23'0 0.0
2017-Nov-14 17:30S 05°17' E 011°23'0 0.0
2017-Nov-14 17:00S 05°17' E 011°23'0 0.0
2017-Nov-14 16:30S 05°17' E 011°23'0 0.0
2017-Nov-14 16:00S 05°17' E 011°23'0 0.5
2017-Nov-14 15:30S 05°17' E 011°23'0 0.3
2017-Nov-14 15:00S 05°18' E 011°23'1 1.7
2017-Nov-14 14:30S 05°18' E 011°23'0 0.4
2017-Nov-14 14:00S 05°18' E 011°23'0 0.4
2017-Nov-14 13:30S 05°18' E 011°23'0 0.3
2017-Nov-14 13:00S 05°18' E 011°23'1 1.1
2017-Nov-14 12:30S 05°18' E 011°23'0 0.6
2017-Nov-14 12:00S 05°18' E 011°23'0 0.5
2017-Nov-14 11:30S 05°18' E 011°23'0 0.4
2017-Nov-14 11:00S 05°18' E 011°23'0 0.8
2017-Nov-14 10:30S 05°17' E 011°23'0 0.0
2017-Nov-14 10:00S 05°17' E 011°23'0 0.0
2017-Nov-14 09:30S 05°17' E 011°23'0 0.0
2017-Nov-14 08:56S 05°17' E 011°23'0 0.1
2017-Nov-14 08:30S 05°17' E 011°23'0 0.2
2017-Nov-14 08:00S 05°17' E 011°23'0 0.0
2017-Nov-14 07:30S 05°17' E 011°23'0 0.0
2017-Nov-14 07:00S 05°17' E 011°23'0 0.0
2017-Nov-14 06:30S 05°17' E 011°23'0 0.2
2017-Nov-14 06:00S 05°17' E 011°23'0 0.2
2017-Nov-14 05:28S 05°17' E 011°23'1 2.4
2017-Nov-14 05:00S 05°17' E 011°22'2 3.8
2017-Nov-14 04:30S 05°16' E 011°21'3 5.4
2017-Nov-14 04:00S 05°14' E 011°19'1 2.8
2017-Nov-14 03:30S 05°13' E 011°18'0 0.3
2017-Nov-14 03:00S 05°13' E 011°18'0 0.6
2017-Nov-14 02:30S 05°13' E 011°18'0 0.2
2017-Nov-14 02:00S 05°12' E 011°18'2 4.0
2017-Nov-14 01:30S 05°11' E 011°19'3 6.7
2017-Nov-14 01:00S 05°08' E 011°22'3 6.9
2017-Nov-14 00:30S 05°06' E 011°24'3 6.5
2017-Nov-14 00:00S 05°04' E 011°27'3 6.7
2017-Nov-13 23:30S 05°02' E 011°29'4 6.6
2017-Nov-13 22:56S 04°59' E 011°32'11 0.4
2017-Nov-12 18:36S 04°51' E 011°39'1 6.8
2017-Nov-12 18:30S 04°51' E 011°39'3 6.7
2017-Nov-12 18:00S 04°54' E 011°36'4 7.0
2017-Nov-12 17:29S 04°57' E 011°34'4 7.2
2017-Nov-12 16:59S 04°60' E 011°32'3 7.3
2017-Nov-12 16:30S 05°02' E 011°30'4 7.3
2017-Nov-12 16:00S 05°06' E 011°28'4 7.3
2017-Nov-12 15:30S 05°09' E 011°27'4 7.2
2017-Nov-12 15:00S 05°12' E 011°25'4 7.4
2017-Nov-12 14:30S 05°16' E 011°24'2 3.2
2017-Nov-12 14:00S 05°17' E 011°23'0 0.0
2017-Nov-12 13:30S 05°17' E 011°23'0 0.0
2017-Nov-12 13:00S 05°17' E 011°23'0 0.0
2017-Nov-12 12:30S 05°17' E 011°23'0 0.0
2017-Nov-12 12:00S 05°17' E 011°23'0 0.0
2017-Nov-12 11:30S 05°17' E 011°23'0 0.1
2017-Nov-12 11:00S 05°17' E 011°23'0 0.1
2017-Nov-12 10:30S 05°17' E 011°23'0 0.0
2017-Nov-12 10:00S 05°17' E 011°23'0 0.1
2017-Nov-12 09:30S 05°17' E 011°23'0 0.7
2017-Nov-12 09:00S 05°17' E 011°24'0 0.5
2017-Nov-12 08:30S 05°17' E 011°23'0 0.0
2017-Nov-12 08:00S 05°17' E 011°23'0 0.0
2017-Nov-12 07:30S 05°17' E 011°23'0 0.0
2017-Nov-12 06:56S 05°17' E 011°23'0 0.0
2017-Nov-12 06:30S 05°17' E 011°23'0 0.0
2017-Nov-12 06:00S 05°17' E 011°23'0 0.3
2017-Nov-12 05:30S 05°17' E 011°23'0 0.8
2017-Nov-12 05:00S 05°17' E 011°24'0 0.5
2017-Nov-12 04:30S 05°17' E 011°23'0 0.0
2017-Nov-12 03:59S 05°17' E 011°23'0 0.0
2017-Nov-12 03:30S 05°17' E 011°23'0 0.0
2017-Nov-12 03:00S 05°17' E 011°23'0 0.0
2017-Nov-12 02:30S 05°17' E 011°23'0 0.0
2017-Nov-12 02:00S 05°17' E 011°23'0 0.0
2017-Nov-12 01:30S 05°17' E 011°23'0 0.0
2017-Nov-12 01:00S 05°17' E 011°23'0 0.0
2017-Nov-12 00:30S 05°17' E 011°23'0 0.0
2017-Nov-12 00:00S 05°17' E 011°23'0 0.0
2017-Nov-11 23:29S 05°17' E 011°23'0 0.0
2017-Nov-11 23:00S 05°17' E 011°23'0 0.0
2017-Nov-11 22:30S 05°17' E 011°23'0 0.0
2017-Nov-11 22:00S 05°17' E 011°23'0 0.0
2017-Nov-11 21:30S 05°17' E 011°23'0 0.0
2017-Nov-11 21:00S 05°17' E 011°23'0 0.3
2017-Nov-11 20:30S 05°17' E 011°23'0 0.0
2017-Nov-11 20:00S 05°17' E 011°23'0 0.0
2017-Nov-11 19:30S 05°17' E 011°23'0 0.0
2017-Nov-11 19:00S 05°17' E 011°23'1 2.6
2017-Nov-11 18:30S 05°17' E 011°22'3 5.8
2017-Nov-11 18:00S 05°15' E 011°20'3 5.7
2017-Nov-11 17:30S 05°13' E 011°18'0 0.5
2017-Nov-11 17:00S 05°13' E 011°18'0 0.0
2017-Nov-11 16:30S 05°13' E 011°18'0 0.0
2017-Nov-11 16:00S 05°13' E 011°18'0 0.0
2017-Nov-11 15:30S 05°13' E 011°18'0 0.0
2017-Nov-11 15:00S 05°13' E 011°18'0 0.0
2017-Nov-11 14:30S 05°13' E 011°18'0 0.0
2017-Nov-11 14:00S 05°13' E 011°18'0 0.0
2017-Nov-11 13:30S 05°13' E 011°18'0 0.0
2017-Nov-11 13:00S 05°13' E 011°18'0 0.0
2017-Nov-11 12:30S 05°13' E 011°18'0 0.0
2017-Nov-11 12:00S 05°13' E 011°18'0 0.0
2017-Nov-11 11:30S 05°13' E 011°18'0 0.0
2017-Nov-11 11:00S 05°13' E 011°18'0 0.0
2017-Nov-11 10:30S 05°13' E 011°18'0 0.0
2017-Nov-11 10:00S 05°13' E 011°18'0 0.3
2017-Nov-11 09:29S 05°13' E 011°18'0 0.3
2017-Nov-11 09:00S 05°13' E 011°18'0 0.0
2017-Nov-11 08:30S 05°13' E 011°18'0 0.0
2017-Nov-11 08:00S 05°13' E 011°18'0 0.0
2017-Nov-11 07:30S 05°13' E 011°18'0 0.0
2017-Nov-11 07:00S 05°13' E 011°18'0 0.2
2017-Nov-11 06:30S 05°13' E 011°18'0 0.6
2017-Nov-11 06:00S 05°13' E 011°18'0 0.1
2017-Nov-11 05:30S 05°13' E 011°18'1 1.5
2017-Nov-11 05:00S 05°14' E 011°18'2 3.8
2017-Nov-11 04:30S 05°15' E 011°19'3 6.1
2017-Nov-11 04:00S 05°16' E 011°22'2 3.8
2017-Nov-11 03:30S 05°16' E 011°24'0 0.7
2017-Nov-11 03:00S 05°16' E 011°24'1 1.1
2017-Nov-11 02:30S 05°16' E 011°24'0 0.6
2017-Nov-11 02:00S 05°16' E 011°23'3 4.5
2017-Nov-11 01:25S 05°14' E 011°24'3 7.2
2017-Nov-11 01:00S 05°11' E 011°25'4 7.4
2017-Nov-11 00:30S 05°08' E 011°27'4 7.5
2017-Nov-11 00:00S 05°04' E 011°29'4 7.5
2017-Nov-10 23:30S 05°01' E 011°31'5 7.6
2017-Nov-10 22:47S 04°57' E 011°34'9 0.3
2017-Nov-09 18:29S 04°51' E 011°40'4 7.6
2017-Nov-09 18:00S 04°53' E 011°37'4 7.5
2017-Nov-09 17:30S 04°56' E 011°34'4 7.4
2017-Nov-09 17:00S 04°58' E 011°32'4 7.7
2017-Nov-09 16:30S 05°02' E 011°30'4 7.3
2017-Nov-09 16:00S 05°05' E 011°28'4 7.7
2017-Nov-09 15:30S 05°08' E 011°26'4 7.6
2017-Nov-09 15:00S 05°12' E 011°25'4 7.6
2017-Nov-09 14:30S 05°16' E 011°24'2 4.6
2017-Nov-09 14:00S 05°17' E 011°23'0 0.8
2017-Nov-09 13:30S 05°17' E 011°23'0 0.0
2017-Nov-09 13:01S 05°17' E 011°23'0 0.1
2017-Nov-09 12:30S 05°17' E 011°23'0 0.1
2017-Nov-09 12:00S 05°17' E 011°23'0 0.0
2017-Nov-09 11:30S 05°17' E 011°23'0 0.0
2017-Nov-09 11:00S 05°17' E 011°23'0 0.0
2017-Nov-09 10:30S 05°17' E 011°23'0 0.0
2017-Nov-09 10:00S 05°17' E 011°23'0 0.0
2017-Nov-09 09:30S 05°17' E 011°23'0 0.0
2017-Nov-09 09:00S 05°17' E 011°23'0 0.0
2017-Nov-09 08:30S 05°17' E 011°23'0 0.0
2017-Nov-09 08:00S 05°17' E 011°23'0 0.1
2017-Nov-09 07:30S 05°17' E 011°23'0 0.0
2017-Nov-09 07:00S 05°17' E 011°23'0 0.1
2017-Nov-09 06:30S 05°17' E 011°23'0 0.2
2017-Nov-09 06:00S 05°17' E 011°23'0 0.1
2017-Nov-09 05:30S 05°17' E 011°23'0 0.1
2017-Nov-09 05:00S 05°17' E 011°23'0 0.0
2017-Nov-09 04:30S 05°17' E 011°23'0 0.2
2017-Nov-09 04:00S 05°17' E 011°23'0 0.0
2017-Nov-09 03:30S 05°17' E 011°23'0 0.0
2017-Nov-09 03:00S 05°17' E 011°23'0 0.0
2017-Nov-09 02:30S 05°17' E 011°23'0 0.0
2017-Nov-09 02:00S 05°17' E 011°23'0 0.0
2017-Nov-09 01:30S 05°17' E 011°23'0 0.0
2017-Nov-09 01:00S 05°17' E 011°23'0 0.0
2017-Nov-09 00:30S 05°17' E 011°23'0 0.0
2017-Nov-09 00:00S 05°17' E 011°23'0 0.0
2017-Nov-08 23:30S 05°17' E 011°23'0 0.0
2017-Nov-08 23:00S 05°17' E 011°23'0 0.0
2017-Nov-08 22:30S 05°17' E 011°23'0 0.0
2017-Nov-08 22:00S 05°17' E 011°23'0 0.0
2017-Nov-08 21:30S 05°17' E 011°23'0 0.0
2017-Nov-08 21:00S 05°17' E 011°23'0 0.0
2017-Nov-08 20:30S 05°17' E 011°23'0 0.0
2017-Nov-08 20:00S 05°17' E 011°23'0 0.0
2017-Nov-08 19:30S 05°17' E 011°23'0 0.1
2017-Nov-08 19:00S 05°17' E 011°23'0 0.8
2017-Nov-08 18:30S 05°17' E 011°24'2 3.6
2017-Nov-08 18:00S 05°15' E 011°23'0 0.6
2017-Nov-08 17:30S 05°16' E 011°23'1 1.5
2017-Nov-08 17:00S 05°16' E 011°24'1 1.7
2017-Nov-08 16:30S 05°17' E 011°24'0 0.5
2017-Nov-08 16:00S 05°17' E 011°24'0 0.5
2017-Nov-08 15:30S 05°17' E 011°24'0 0.5
2017-Nov-08 15:00S 05°17' E 011°24'0 0.7
2017-Nov-08 14:30S 05°17' E 011°23'0 0.7
2017-Nov-08 14:00S 05°17' E 011°23'0 0.0
2017-Nov-08 13:30S 05°17' E 011°23'0 0.1
2017-Nov-08 13:00S 05°17' E 011°23'0 0.0
2017-Nov-08 12:30S 05°17' E 011°23'0 0.0
2017-Nov-08 12:00S 05°17' E 011°23'0 0.0
2017-Nov-08 11:30S 05°17' E 011°23'0 0.0
2017-Nov-08 11:00S 05°17' E 011°23'0 0.0
2017-Nov-08 10:30S 05°17' E 011°23'0 0.0
2017-Nov-08 10:00S 05°17' E 011°23'0 0.2
2017-Nov-08 09:30S 05°17' E 011°23'0 0.0
2017-Nov-08 09:00S 05°17' E 011°23'0 0.0
2017-Nov-08 08:30S 05°17' E 011°23'0 0.0
2017-Nov-08 08:00S 05°17' E 011°23'0 0.0
2017-Nov-08 07:30S 05°17' E 011°23'0 0.0
2017-Nov-08 07:00S 05°17' E 011°23'0 0.1
2017-Nov-08 06:30S 05°17' E 011°23'0 0.4
2017-Nov-08 06:00S 05°17' E 011°23'1 1.3
2017-Nov-08 05:30S 05°17' E 011°24'0 0.5
2017-Nov-08 05:00S 05°17' E 011°24'0 0.1
2017-Nov-08 04:30S 05°17' E 011°24'0 0.3
2017-Nov-08 04:00S 05°17' E 011°24'0 0.2
2017-Nov-08 03:30S 05°17' E 011°24'0 0.3
2017-Nov-08 03:00S 05°16' E 011°24'1 1.9
2017-Nov-08 02:30S 05°16' E 011°24'3 6.6
2017-Nov-08 02:00S 05°13' E 011°25'3 6.6
2017-Nov-08 01:30S 05°10' E 011°27'3 6.5
2017-Nov-08 01:00S 05°07' E 011°28'3 6.7
2017-Nov-08 00:30S 05°03' E 011°29'3 6.6
2017-Nov-08 00:00S 05°00' E 011°30'3 6.6
2017-Nov-07 23:30S 04°58' E 011°32'3 6.8
2017-Nov-07 23:00S 04°55' E 011°35'  

Dump ship's entire track history